createdAt,value
2022-11-17T00:00:28.287Z,17.00
2022-11-17T00:03:39.216Z,16.00
2022-11-17T00:06:42.009Z,15.00
2022-11-17T00:09:44.590Z,14.67
2022-11-17T00:13:06.111Z,14.00
2022-11-17T00:16:13.113Z,17.33
2022-11-17T00:19:34.610Z,17.00
2022-11-17T00:22:37.124Z,11.00
2022-11-17T00:25:39.847Z,12.33
2022-11-17T00:28:42.462Z,16.00
2022-11-17T00:32:04.024Z,13.67
2022-11-17T00:35:07.100Z,13.00
2022-11-17T00:38:15.736Z,16.00
2022-11-17T00:41:18.110Z,7.67
2022-11-17T00:44:21.221Z,11.33
2022-11-17T00:47:23.676Z,8.00
2022-11-17T00:50:26.623Z,10.00
2022-11-17T00:53:29.239Z,14.00
2022-11-17T00:56:32.189Z,15.33
2022-11-17T00:59:34.603Z,9.33
2022-11-17T01:02:37.672Z,8.33
2022-11-17T01:05:40.254Z,10.00
2022-11-17T01:08:43.576Z,11.00
2022-11-17T01:11:47.492Z,8.00
2022-11-17T01:14:50.499Z,7.67
2022-11-17T01:17:53.139Z,7.00
2022-11-17T01:20:55.902Z,10.33
2022-11-17T01:24:00.090Z,9.33
2022-11-17T01:27:02.976Z,7.00
2022-11-17T01:30:06.026Z,9.33
2022-11-17T01:33:09.080Z,8.67
2022-11-17T01:36:20.830Z,7.67
2022-11-17T01:39:24.821Z,5.67
2022-11-17T01:42:27.705Z,7.33
2022-11-17T01:45:30.553Z,10.00
2022-11-17T01:48:33.555Z,7.00
2022-11-17T01:51:39.372Z,9.33
2022-11-17T01:54:43.755Z,7.00
2022-11-17T01:57:57.933Z,7.00
2022-11-17T02:01:00.613Z,10.00
2022-11-17T02:04:04.110Z,10.00
2022-11-17T02:07:11.355Z,12.33
2022-11-17T02:10:14.371Z,10.00
2022-11-17T02:13:17.143Z,13.33
2022-11-17T02:16:20.166Z,17.00
2022-11-17T02:19:24.448Z,18.33
2022-11-17T02:22:33.744Z,13.67
2022-11-17T02:26:04.551Z,11.67
2022-11-17T02:29:17.242Z,11.00
2022-11-17T02:32:28.030Z,11.67
2022-11-17T02:35:48.866Z,16.33
2022-11-17T02:39:00.023Z,16.67
2022-11-17T02:42:11.713Z,17.67
2022-11-17T02:45:33.819Z,11.67
2022-11-17T02:48:39.594Z,16.67
2022-11-17T02:51:43.502Z,10.67
2022-11-17T02:54:46.430Z,14.67
2022-11-17T02:57:49.959Z,12.33
2022-11-17T03:01:22.485Z,11.33
2022-11-17T03:04:38.073Z,10.00
2022-11-17T03:07:52.399Z,13.33
2022-11-17T03:11:01.219Z,13.00
2022-11-17T03:14:10.068Z,10.00
2022-11-17T03:17:38.300Z,13.33
2022-11-17T03:20:44.508Z,12.00
2022-11-17T03:23:51.409Z,8.67
2022-11-17T03:27:01.263Z,9.00
2022-11-17T03:30:08.013Z,13.33
2022-11-17T03:33:15.569Z,14.00
2022-11-17T03:36:23.309Z,17.00
2022-11-17T03:39:37.264Z,8.33
2022-11-17T03:42:43.295Z,10.33
2022-11-17T03:45:49.967Z,8.67
2022-11-17T03:49:37.164Z,11.67
2022-11-17T03:52:41.168Z,11.00
2022-11-17T03:56:08.278Z,13.00
2022-11-17T03:59:17.437Z,10.00
2022-11-17T04:02:20.870Z,10.67
2022-11-17T04:05:23.833Z,11.00
2022-11-17T04:08:29.818Z,4.67
2022-11-17T04:11:51.297Z,10.00
2022-11-17T04:15:12.522Z,7.00
2022-11-17T04:18:16.312Z,6.33
2022-11-17T04:21:19.335Z,13.33
2022-11-17T04:24:22.095Z,7.00
2022-11-17T04:27:43.325Z,11.67
2022-11-17T04:30:46.075Z,9.33
2022-11-17T04:33:56.793Z,8.00
2022-11-17T04:37:03.882Z,9.67
2022-11-17T04:40:10.442Z,10.00
2022-11-17T04:43:13.181Z,12.33
2022-11-17T04:46:16.871Z,7.67
2022-11-17T04:49:21.457Z,15.00
2022-11-17T04:52:29.456Z,12.00
2022-11-17T04:55:32.973Z,11.33
2022-11-17T04:58:35.595Z,12.00
2022-11-17T05:01:38.853Z,11.67
2022-11-17T05:04:56.354Z,9.67
2022-11-17T05:07:59.205Z,13.00
2022-11-17T05:11:20.307Z,8.67
2022-11-17T05:14:25.026Z,10.67
2022-11-17T05:17:27.519Z,10.00
2022-11-17T05:20:32.943Z,7.67
2022-11-17T05:23:54.219Z,7.67
2022-11-17T05:26:57.055Z,7.00
2022-11-17T05:29:59.995Z,11.00
2022-11-17T05:33:03.001Z,8.33
2022-11-17T05:36:05.994Z,7.00
2022-11-17T05:39:09.874Z,9.33
2022-11-17T05:42:12.578Z,8.33
2022-11-17T05:45:15.531Z,8.67
2022-11-17T05:48:18.671Z,4.00
2022-11-17T05:51:24.047Z,7.00
2022-11-17T05:54:27.238Z,6.00
2022-11-17T05:57:31.904Z,5.33
2022-11-17T06:00:35.245Z,9.00
2022-11-17T06:03:41.820Z,9.67
2022-11-17T06:06:47.646Z,11.00
2022-11-17T06:09:50.658Z,6.33
2022-11-17T06:12:53.991Z,8.00
2022-11-17T06:15:58.940Z,9.00
2022-11-17T06:19:18.155Z,7.00
2022-11-17T06:22:20.985Z,4.67
2022-11-17T06:25:24.133Z,10.67
2022-11-17T06:28:27.840Z,6.00
2022-11-17T06:31:32.606Z,6.00
2022-11-17T06:34:35.405Z,4.00
2022-11-17T06:37:38.265Z,3.00
2022-11-17T06:40:41.020Z,1.00
2022-11-17T06:43:43.881Z,7.00
2022-11-17T06:46:49.168Z,4.00
2022-11-17T06:49:52.164Z,6.00
2022-11-17T06:53:05.741Z,6.00
2022-11-17T06:56:12.010Z,7.00
2022-11-17T06:59:16.272Z,7.00
2022-11-17T07:02:19.264Z,6.00
2022-11-17T07:05:21.827Z,9.67
2022-11-17T07:08:24.660Z,4.67
2022-11-17T07:11:27.091Z,6.00
2022-11-17T07:14:30.084Z,4.00
2022-11-17T07:17:32.704Z,9.67
2022-11-17T07:20:35.493Z,4.00
2022-11-17T07:23:38.849Z,3.67
2022-11-17T07:26:41.534Z,9.00
2022-11-17T07:29:44.133Z,9.33
2022-11-17T07:32:53.411Z,6.33
2022-11-17T07:36:01.907Z,7.67
2022-11-17T07:39:07.699Z,3.33
2022-11-17T07:42:10.408Z,4.67
2022-11-17T07:45:13.209Z,6.67
2022-11-17T07:48:15.633Z,6.00
2022-11-17T07:51:18.565Z,11.33
2022-11-17T07:54:21.247Z,7.00
2022-11-17T07:57:25.329Z,6.67
2022-11-17T08:00:29.691Z,12.67
2022-11-17T08:03:32.610Z,9.00
2022-11-17T08:06:37.456Z,7.67
2022-11-17T08:09:40.519Z,10.00
2022-11-17T08:12:43.239Z,13.00
2022-11-17T08:15:46.113Z,12.33
2022-11-17T08:18:52.516Z,9.33
2022-11-17T08:21:55.733Z,7.67
2022-11-17T08:24:58.320Z,10.00
2022-11-17T08:28:01.362Z,9.33
2022-11-17T08:31:04.996Z,9.67
2022-11-17T08:34:08.058Z,15.00
2022-11-17T08:37:10.727Z,15.00
2022-11-17T08:40:14.409Z,9.33
2022-11-17T08:43:16.998Z,10.00
2022-11-17T08:46:19.791Z,9.00
2022-11-17T08:49:22.282Z,8.33
2022-11-17T08:52:25.142Z,9.00
2022-11-17T08:55:27.786Z,11.33
2022-11-17T08:58:30.651Z,8.67
2022-11-17T09:01:33.345Z,11.33
2022-11-17T09:04:36.289Z,13.67
2022-11-17T09:07:38.770Z,14.33
2022-11-17T09:10:42.245Z,13.00
2022-11-17T09:13:47.259Z,12.00
2022-11-17T09:16:50.275Z,14.33
2022-11-17T09:19:53.030Z,16.67
2022-11-17T09:22:59.606Z,20.33
2022-11-17T09:26:13.875Z,10.00
2022-11-17T09:29:16.744Z,18.00
2022-11-17T09:32:20.918Z,23.33
2022-11-17T09:35:23.890Z,18.00
2022-11-17T09:38:26.367Z,16.67
2022-11-17T09:41:39.096Z,13.67
2022-11-17T09:44:56.692Z,11.00
2022-11-17T09:48:39.035Z,14.33
2022-11-17T09:51:32.265Z,13.67
2022-11-17T09:54:48.674Z,13.00
2022-11-17T09:58:17.048Z,15.00
2022-11-17T10:01:22.105Z,13.00
2022-11-17T10:04:27.141Z,15.67
2022-11-17T10:07:31.640Z,18.00
2022-11-17T10:10:39.378Z,22.67
2022-11-17T10:13:42.394Z,15.33
2022-11-17T10:16:54.828Z,10.00
2022-11-17T10:19:57.680Z,15.67
2022-11-17T10:23:03.343Z,13.67
2022-11-17T10:26:11.366Z,13.00
2022-11-17T10:29:15.663Z,18.33
2022-11-17T10:32:18.688Z,13.67
2022-11-17T10:35:24.838Z,12.33
2022-11-17T10:38:29.747Z,18.33
2022-11-17T10:41:41.783Z,18.00
2022-11-17T10:44:51.490Z,15.33
2022-11-17T10:48:17.372Z,18.33
2022-11-17T10:51:25.414Z,24.00
2022-11-17T10:54:27.967Z,12.67
2022-11-17T10:57:31.141Z,25.67
2022-11-17T11:00:35.900Z,18.00
2022-11-17T11:03:39.709Z,21.00
2022-11-17T11:07:13.142Z,16.67
2022-11-17T11:10:19.352Z,16.67
2022-11-17T11:13:50.350Z,15.00
2022-11-17T11:16:53.745Z,23.33
2022-11-17T11:19:56.948Z,25.67
2022-11-17T11:23:08.919Z,9.33
2022-11-17T11:26:11.668Z,16.00
2022-11-17T11:29:17.365Z,25.00
2022-11-17T11:32:38.104Z,18.00
2022-11-17T11:36:00.173Z,24.67
2022-11-17T11:39:33.862Z,14.67
2022-11-17T11:42:53.370Z,15.67
2022-11-17T11:46:02.658Z,24.67
2022-11-17T11:49:33.800Z,16.00
2022-11-17T11:52:39.380Z,18.00
2022-11-17T11:55:42.473Z,19.67
2022-11-17T11:59:07.673Z,16.00
2022-11-17T12:02:13.506Z,13.67
2022-11-17T12:05:32.425Z,19.33
2022-11-17T12:09:01.200Z,17.00
2022-11-17T12:12:09.018Z,13.33
2022-11-17T12:15:20.681Z,18.33
2022-11-17T12:18:23.427Z,16.33
2022-11-17T12:21:29.438Z,14.33
2022-11-17T12:24:41.163Z,17.67
2022-11-17T12:27:46.367Z,14.00
2022-11-17T12:30:51.998Z,13.33
2022-11-17T12:33:55.023Z,13.00
2022-11-17T12:37:18.314Z,11.33
2022-11-17T12:40:39.748Z,13.67
2022-11-17T12:43:42.184Z,15.33
2022-11-17T12:46:48.285Z,13.00
2022-11-17T12:50:19.369Z,16.33
2022-11-17T12:53:26.482Z,13.00
2022-11-17T12:56:53.613Z,12.33
2022-11-17T13:00:07.877Z,13.00
2022-11-17T13:03:22.727Z,13.67
2022-11-17T13:06:35.506Z,11.67
2022-11-17T13:09:39.558Z,11.33
2022-11-17T13:12:42.543Z,13.00
2022-11-17T13:15:49.535Z,13.00
2022-11-17T13:18:52.369Z,19.33
2022-11-17T13:22:01.812Z,16.00
2022-11-17T13:25:23.433Z,19.33
2022-11-17T13:28:31.610Z,13.33
2022-11-17T13:31:34.618Z,11.67
2022-11-17T13:34:45.899Z,4.00
2022-11-17T13:38:14.274Z,13.67
2022-11-17T13:41:22.322Z,15.33
2022-11-17T13:44:27.827Z,11.67
2022-11-17T13:47:36.478Z,15.67
2022-11-17T13:50:40.301Z,14.33
2022-11-17T13:53:44.540Z,13.67
2022-11-17T13:56:47.479Z,14.00
2022-11-17T13:59:50.443Z,9.67
2022-11-17T14:02:59.733Z,15.33
2022-11-17T14:06:05.311Z,12.67
2022-11-17T14:09:10.340Z,7.33
2022-11-17T14:12:17.180Z,16.33
2022-11-17T14:15:25.492Z,15.67
2022-11-17T14:18:29.949Z,11.00
2022-11-17T14:21:33.653Z,13.00
2022-11-17T14:24:36.969Z,7.00
2022-11-17T14:27:40.208Z,12.00
2022-11-17T14:30:43.007Z,11.33
2022-11-17T14:33:46.386Z,10.00
2022-11-17T14:36:54.351Z,13.00
2022-11-17T14:39:57.422Z,17.00
2022-11-17T14:43:00.089Z,9.00
2022-11-17T14:46:03.846Z,9.67
2022-11-17T14:49:07.707Z,9.00
2022-11-17T14:52:10.530Z,9.33
2022-11-17T14:55:14.422Z,9.33
2022-11-17T14:58:17.201Z,14.33
2022-11-17T15:01:25.491Z,10.00
2022-11-17T15:04:49.346Z,9.33
2022-11-17T15:07:51.030Z,11.00
2022-11-17T15:10:56.614Z,11.67
2022-11-17T15:14:05.897Z,18.33
2022-11-17T15:17:13.929Z,12.00
2022-11-17T15:20:17.331Z,12.00
2022-11-17T15:23:20.226Z,15.33
2022-11-17T15:26:24.096Z,7.00
2022-11-17T15:29:26.937Z,16.67
2022-11-17T15:32:30.044Z,15.33
2022-11-17T15:35:32.913Z,18.00
2022-11-17T15:38:36.312Z,18.33
2022-11-17T15:41:39.387Z,18.00
2022-11-17T15:44:42.102Z,15.00
2022-11-17T15:47:45.028Z,17.67
2022-11-17T15:50:47.593Z,15.33
2022-11-17T15:53:52.337Z,18.33
2022-11-17T15:56:55.837Z,22.25
2022-11-17T16:00:00.913Z,17.67
2022-11-17T16:03:06.176Z,20.00
2022-11-17T16:06:10.172Z,19.75
2022-11-17T16:09:13.321Z,21.25
2022-11-17T16:12:17.212Z,18.00
2022-11-17T16:15:19.856Z,18.00
2022-11-17T16:18:23.321Z,18.00
2022-11-17T16:21:26.064Z,18.00
2022-11-17T16:24:28.961Z,20.50
2022-11-17T16:27:33.080Z,20.25
2022-11-17T16:30:36.217Z,28.00
2022-11-17T16:33:38.935Z,20.75
2022-11-17T16:36:43.932Z,10.25
2022-11-17T16:39:46.492Z,19.50
2022-11-17T16:42:49.289Z,25.75
2022-11-17T16:45:51.755Z,19.50
2022-11-17T16:48:55.284Z,18.00
2022-11-17T16:51:59.162Z,21.50
2022-11-17T16:55:05.143Z,22.75
2022-11-17T16:58:08.534Z,24.75
2022-11-17T17:01:16.714Z,15.25
2022-11-17T17:04:19.630Z,26.50
2022-11-17T17:07:22.463Z,20.00
2022-11-17T17:10:25.713Z,23.00
2022-11-17T17:13:29.027Z,22.00
2022-11-17T17:16:33.383Z,17.50
2022-11-17T17:19:36.629Z,30.50
2022-11-17T17:22:39.793Z,29.50
2022-11-17T17:25:43.184Z,30.50
2022-11-17T17:28:47.673Z,36.75
2022-11-17T17:31:50.764Z,36.75
2022-11-17T17:34:53.529Z,45.75
2022-11-17T17:37:56.972Z,42.25
2022-11-17T17:41:14.119Z,59.00
2022-11-17T17:44:19.609Z,53.00
2022-11-17T17:47:22.392Z,59.00
2022-11-17T17:50:25.618Z,61.25
2022-11-17T17:53:28.741Z,67.50
2022-11-17T17:56:34.251Z,49.50
2022-11-17T17:59:37.301Z,65.00
2022-11-17T18:02:41.020Z,37.50
2022-11-17T18:05:44.200Z,57.75
2022-11-17T18:08:48.105Z,57.75
2022-11-17T18:11:52.310Z,69.75
2022-11-17T18:14:55.682Z,66.50
2022-11-17T18:17:58.661Z,64.00
2022-11-17T18:21:04.835Z,74.25
2022-11-17T18:24:08.160Z,73.00
2022-11-17T18:27:12.055Z,63.25
2022-11-17T18:30:15.391Z,69.75
2022-11-17T18:33:19.358Z,61.50
2022-11-17T18:36:24.493Z,66.25
2022-11-17T18:39:31.970Z,69.50
2022-11-17T18:42:38.941Z,66.00
2022-11-17T18:45:42.941Z,69.50
2022-11-17T18:48:48.244Z,58.75
2022-11-17T18:51:53.010Z,79.00
2022-11-17T18:54:56.572Z,53.00
2022-11-17T18:57:59.997Z,64.00
2022-11-17T19:01:18.190Z,78.75
2022-11-17T19:04:23.026Z,77.25
2022-11-17T19:07:29.858Z,69.75
2022-11-17T19:11:06.427Z,69.75
2022-11-17T19:14:36.246Z,74.50
2022-11-17T19:18:00.107Z,75.75
2022-11-17T19:21:16.559Z,80.25
2022-11-17T19:28:54.811Z,77.75
2022-11-17T19:36:39.817Z,69.75
2022-11-17T19:39:43.265Z,75.50
2022-11-17T19:42:51.182Z,75.25
2022-11-17T19:46:01.960Z,83.00
2022-11-17T19:49:09.436Z,72.00
2022-11-17T19:52:33.974Z,75.25
2022-11-17T19:55:38.914Z,78.50
2022-11-17T19:58:43.988Z,77.50
2022-11-17T20:01:48.043Z,73.50
2022-11-17T20:04:51.026Z,83.00
2022-11-17T20:07:54.317Z,78.50
2022-11-17T20:11:07.797Z,77.75
2022-11-17T20:14:12.323Z,80.00
2022-11-17T20:17:15.557Z,74.25
2022-11-17T20:20:19.010Z,77.50
2022-11-17T20:23:22.393Z,75.00
2022-11-17T20:26:29.788Z,60.25
2022-11-17T20:29:33.379Z,70.75
2022-11-17T20:32:37.444Z,80.75
2022-11-17T20:35:40.988Z,76.75
2022-11-17T20:38:46.007Z,68.50
2022-11-17T20:41:50.771Z,78.75
2022-11-17T20:44:54.270Z,84.50
2022-11-17T20:47:58.840Z,74.00
2022-11-17T20:51:10.095Z,78.00
2022-11-17T20:54:13.858Z,74.00
2022-11-17T20:57:20.128Z,75.00
2022-11-17T21:00:23.971Z,68.25
2022-11-17T21:03:28.283Z,76.50
2022-11-17T21:06:31.566Z,74.00
2022-11-17T21:09:35.749Z,74.25
2022-11-17T21:12:41.708Z,69.00
2022-11-17T21:15:46.878Z,66.00
2022-11-17T21:18:49.768Z,69.75
2022-11-17T21:21:53.706Z,75.25
2022-11-17T21:24:56.868Z,78.00
2022-11-17T21:27:59.741Z,78.50
2022-11-17T21:31:07.069Z,74.50
2022-11-17T21:34:17.305Z,75.25
2022-11-17T21:37:20.998Z,74.50
2022-11-17T21:40:24.759Z,71.50
2022-11-17T21:43:27.440Z,74.50
2022-11-17T21:46:33.190Z,68.75
2022-11-17T21:49:35.744Z,73.25
2022-11-17T21:52:38.730Z,78.25
2022-11-17T21:55:41.340Z,64.25
2022-11-17T21:58:44.376Z,64.00
2022-11-17T22:01:46.827Z,69.00
2022-11-17T22:04:49.633Z,72.50
2022-11-17T22:07:52.084Z,68.00
2022-11-17T22:10:55.055Z,80.75
2022-11-17T22:13:58.008Z,66.25
2022-11-17T22:17:01.913Z,70.50
2022-11-17T22:20:05.742Z,71.75
2022-11-17T22:23:08.531Z,75.25
2022-11-17T22:26:13.194Z,78.25
2022-11-17T22:29:19.971Z,77.75
2022-11-17T22:32:23.852Z,69.50
2022-11-17T22:35:26.952Z,66.75
2022-11-17T22:38:31.209Z,75.25
2022-11-17T22:41:34.131Z,81.00
2022-11-17T22:44:36.850Z,73.00
2022-11-17T22:47:42.496Z,78.25
2022-11-17T22:50:44.987Z,74.75
2022-11-17T22:53:48.003Z,73.50
2022-11-17T22:56:50.672Z,77.75
2022-11-17T22:59:53.821Z,69.75
2022-11-17T23:02:56.465Z,43.50
2022-11-17T23:06:05.540Z,70.50
2022-11-17T23:09:07.974Z,77.75
2022-11-17T23:12:10.832Z,63.25
2022-11-17T23:15:13.375Z,68.25
2022-11-17T23:18:16.191Z,65.75
2022-11-17T23:21:19.097Z,56.00
2022-11-17T23:24:22.131Z,47.50
2022-11-17T23:27:24.953Z,54.50
2022-11-17T23:30:27.811Z,43.50
2022-11-17T23:33:38.599Z,61.25
2022-11-17T23:36:41.285Z,51.25
2022-11-17T23:39:44.620Z,49.00
2022-11-17T23:42:47.754Z,48.00
2022-11-17T23:45:50.389Z,41.75
2022-11-17T23:48:54.587Z,40.75
2022-11-17T23:51:56.978Z,44.00
2022-11-17T23:54:59.789Z,43.25
2022-11-17T23:58:02.357Z,43.00
